Terminal Aerodrome Forecast
Issued by NWS

Home | Current Version | Previous Version | Text Only | Print | Product List | Glossary On
Versions: 1 2 3 4 5 6 7 8 9 10 11 12 13
573
FTUS42 TJSJ 041140
TAFJSJ
TAF
TJSJ 041140Z 0412/0512 VRB03KT P6SM FEW025
     FM041400 08012KT P6SM SCT030
     FM042200 06005KT P6SM SCT025=

USA.gov is the U.S. government's official web portal to all federal, state and local government web resources and services.